Time;durP1;ratioP1;P1;durP2;ratioP2;P2;SDS_P1;SDS_P2;PMS_P1;PMS_P2;Temp;Humidity;BMP_temperature;BMP_pressure;BME280_temperature;BME280_humidity;BME280_pressure;Samples;Min_cycle;Max_cycle;Signal;HPM_P1;HPM_P2
2022/03/16 00:01:42;;;;;;;13.27;11.03;;;7.40;99.90;;;;;;5025266;28;20209;-76
2022/03/16 00:04:09;;;;;;;14.70;12.07;;;7.30;99.90;;;;;;5025017;28;20214;-76
2022/03/16 00:06:35;;;;;;;12.97;11.30;;;7.30;99.90;;;;;;5026000;28;20975;-76
2022/03/16 00:09:02;;;;;;;13.03;11.70;;;7.20;99.90;;;;;;5046438;28;20234;-76
2022/03/16 00:11:29;;;;;;;16.33;12.07;;;7.20;99.90;;;;;;5046710;28;20238;-75
2022/03/16 00:13:56;;;;;;;14.77;12.20;;;7.10;99.90;;;;;;5046457;28;20198;-75
2022/03/16 00:16:22;;;;;;;15.10;13.40;;;7.10;99.90;;;;;;5029717;28;20269;-76
2022/03/16 00:18:51;;;;;;;15.87;12.80;;;7.20;99.90;;;;;;5027229;28;20199;-76
2022/03/16 00:21:17;;;;;;;17.77;13.93;;;7.10;99.90;;;;;;5039200;28;20713;-75
2022/03/16 00:23:44;;;;;;;15.87;13.00;;;7.10;99.90;;;;;;5046847;28;20206;-76
2022/03/16 00:26:11;;;;;;;16.17;13.13;;;7.10;99.90;;;;;;5046943;28;20209;-75
2022/03/16 00:28:38;;;;;;;14.80;12.83;;;7.00;99.90;;;;;;5046818;28;20225;-76
2022/03/16 00:31:05;;;;;;;15.40;12.57;;;7.00;99.90;;;;;;5046026;28;20217;-76
2022/03/16 00:33:32;;;;;;;20.37;14.17;;;6.90;99.90;;;;;;5045797;28;20202;-75
2022/03/16 00:36:00;;;;;;;14.43;11.83;;;6.90;99.90;;;;;;5046035;28;20213;-75
2022/03/16 00:38:27;;;;;;;17.07;13.97;;;6.90;99.90;;;;;;5046137;28;20213;-77
2022/03/16 00:40:54;;;;;;;15.67;13.37;;;6.90;99.90;;;;;;5046656;28;20590;-76
2022/03/16 00:43:21;;;;;;;14.73;13.10;;;6.80;99.90;;;;;;5046302;28;20194;-76
2022/03/16 00:45:47;;;;;;;19.03;13.93;;;6.80;99.90;;;;;;5046448;28;20543;-75
2022/03/16 00:48:14;;;;;;;15.40;13.03;;;6.80;99.90;;;;;;5033713;28;20210;-75
2022/03/16 00:50:41;;;;;;;15.47;13.27;;;6.70;99.90;;;;;;5026625;28;20203;-77
2022/03/16 00:53:09;;;;;;;16.10;13.67;;;6.70;99.90;;;;;;5026411;28;20203;-76
2022/03/16 00:55:36;;;;;;;16.47;13.90;;;6.60;99.90;;;;;;5034478;28;20209;-77
2022/03/16 00:58:03;;;;;;;19.33;14.10;;;6.60;99.90;;;;;;5046200;28;20229;-76
2022/03/16 01:00:30;;;;;;;18.67;15.63;;;6.60;99.90;;;;;;5046371;28;20289;-76
2022/03/16 01:02:56;;;;;;;18.87;15.90;;;6.60;99.90;;;;;;5045906;28;20237;-77
2022/03/16 01:05:23;;;;;;;19.90;16.33;;;6.50;99.90;;;;;;5046235;28;20593;-75
2022/03/16 01:07:50;;;;;;;24.23;16.80;;;6.50;99.90;;;;;;5045658;28;20198;-76
2022/03/16 01:10:18;;;;;;;19.93;16.67;;;6.50;99.90;;;;;;5039080;28;20224;-76
2022/03/16 01:12:45;;;;;;;19.80;16.03;;;6.50;99.90;;;;;;5025954;28;20215;-77
2022/03/16 01:15:12;;;;;;;20.87;16.80;;;6.50;99.90;;;;;;5025523;28;20198;-77
2022/03/16 01:17:38;;;;;;;21.50;16.87;;;6.50;99.90;;;;;;5026441;28;20211;-76
2022/03/16 01:20:07;;;;;;;21.30;16.40;;;6.50;99.90;;;;;;5035580;28;20209;-76
2022/03/16 01:22:34;;;;;;;22.57;17.20;;;6.50;99.90;;;;;;5045803;28;20579;-75
2022/03/16 01:25:00;;;;;;;23.27;17.60;;;6.40;99.90;;;;;;5045780;28;20202;-75
2022/03/16 01:27:29;;;;;;;21.37;17.47;;;6.40;99.90;;;;;;5045591;28;20209;-75
2022/03/16 01:29:55;;;;;;;22.33;17.47;;;6.30;99.90;;;;;;5045380;28;20310;-75
2022/03/16 01:32:22;;;;;;;23.03;18.30;;;6.30;99.90;;;;;;5046055;28;20205;-76
2022/03/16 01:34:49;;;;;;;23.83;18.83;;;6.30;99.90;;;;;;5031716;28;20222;-75
2022/03/16 01:37:16;;;;;;;24.13;19.33;;;6.30;99.90;;;;;;5025357;28;20210;-75
2022/03/16 01:39:42;;;;;;;23.63;18.97;;;6.20;99.90;;;;;;5025617;28;20248;-76
2022/03/16 01:42:09;;;;;;;24.13;18.47;;;6.20;99.90;;;;;;5026096;28;20649;-76
2022/03/16 01:44:47;;;;;;;24.57;19.10;;;6.20;99.90;;;;;;5025082;28;20218;-75
2022/03/16 01:47:15;;;;;;;25.53;18.43;;;6.10;99.90;;;;;;5033936;28;20301;-75
2022/03/16 01:49:42;;;;;;;23.63;17.67;;;6.10;99.90;;;;;;5045110;28;20221;-76
2022/03/16 01:52:11;;;;;;;23.63;18.13;;;6.10;99.90;;;;;;5041623;28;20202;-77
2022/03/16 01:54:40;;;;;;;23.53;17.50;;;6.00;99.90;;;;;;5025573;28;20270;-76
2022/03/16 01:57:09;;;;;;;23.80;18.47;;;6.00;99.90;;;;;;5025254;28;20321;-75
2022/03/16 01:59:36;;;;;;;25.33;18.87;;;6.00;99.90;;;;;;5025486;28;20206;-75
2022/03/16 02:02:06;;;;;;;25.20;19.07;;;5.90;99.90;;;;;;5025474;28;21009;-75
2022/03/16 02:04:32;;;;;;;25.27;19.30;;;5.90;99.90;;;;;;5043357;28;20560;-75
2022/03/16 02:07:00;;;;;;;24.57;18.37;;;5.90;99.90;;;;;;5045146;28;20241;-76
2022/03/16 02:09:28;;;;;;;22.63;17.93;;;5.90;99.90;;;;;;5042348;28;20228;-76
2022/03/16 02:11:54;;;;;;;28.07;19.10;;;5.90;99.90;;;;;;5024972;28;20242;-76
2022/03/16 02:14:21;;;;;;;27.77;19.80;;;5.90;99.90;;;;;;5025074;28;20248;-75
2022/03/16 02:16:49;;;;;;;29.30;20.87;;;5.90;99.90;;;;;;5025086;28;20205;-75
2022/03/16 02:19:17;;;;;;;29.63;20.90;;;5.90;99.90;;;;;;5024066;28;20199;-76
2022/03/16 02:21:49;;;;;;;33.10;21.90;;;5.80;99.90;;;;;;5025201;28;20210;-74
2022/03/16 02:24:17;;;;;;;30.20;20.67;;;5.80;99.90;;;;;;5025189;28;20321;-77
2022/03/16 02:26:43;;;;;;;29.30;22.17;;;5.80;99.90;;;;;;5024539;28;20206;-75
2022/03/16 02:29:10;;;;;;;29.90;21.00;;;5.80;99.90;;;;;;5025235;28;20526;-76
2022/03/16 02:31:37;;;;;;;28.47;18.87;;;5.80;99.90;;;;;;5024178;28;20203;-76
2022/03/16 02:34:04;;;;;;;30.57;20.80;;;5.80;99.90;;;;;;5024299;28;20220;-75
2022/03/16 02:36:31;;;;;;;27.50;21.03;;;5.80;99.90;;;;;;5041621;28;20206;-76
2022/03/16 02:38:57;;;;;;;30.50;22.03;;;5.80;99.90;;;;;;5044996;28;20198;-76
2022/03/16 02:41:26;;;;;;;34.30;24.23;;;5.70;99.90;;;;;;5043982;28;20194;-76
2022/03/16 02:43:52;;;;;;;28.20;20.60;;;5.70;99.90;;;;;;5044062;28;20198;-76
2022/03/16 02:46:19;;;;;;;31.93;21.97;;;5.70;99.90;;;;;;5024531;28;20916;-77
2022/03/16 02:48:46;;;;;;;35.47;23.93;;;5.70;99.90;;;;;;5042634;28;20217;-75
2022/03/16 02:51:13;;;;;;;38.03;25.33;;;5.70;99.90;;;;;;5044234;28;20586;-76
2022/03/16 02:53:40;;;;;;;30.10;22.23;;;5.70;99.90;;;;;;5033502;28;20229;-76
2022/03/16 02:56:07;;;;;;;29.50;21.40;;;5.80;99.90;;;;;;5024895;28;20513;-76
2022/03/16 02:58:35;;;;;;;33.73;23.87;;;5.80;99.90;;;;;;5024611;28;20226;-77
2022/03/16 03:01:04;;;;;;;32.60;22.43;;;5.80;99.90;;;;;;5025277;28;20222;-76
2022/03/16 03:03:30;;;;;;;34.50;23.43;;;5.80;99.90;;;;;;5023679;28;20211;-76
2022/03/16 03:05:57;;;;;;;35.50;22.70;;;5.70;99.90;;;;;;5024246;28;20194;-76
2022/03/16 03:08:24;;;;;;;38.77;24.77;;;5.70;99.90;;;;;;5025147;28;20206;-76
2022/03/16 03:10:51;;;;;;;35.20;25.03;;;5.70;99.90;;;;;;5028255;28;20229;-75
2022/03/16 03:13:18;;;;;;;36.47;23.13;;;5.60;99.90;;;;;;5028500;28;20293;-75
2022/03/16 03:15:46;;;;;;;30.30;22.27;;;5.60;99.90;;;;;;5028127;28;20217;-76
2022/03/16 03:18:12;;;;;;;34.33;23.50;;;5.60;99.90;;;;;;5031732;28;20210;-76
2022/03/16 03:20:39;;;;;;;34.90;24.27;;;5.60;99.90;;;;;;5048587;28;20206;-76
2022/03/16 03:23:06;;;;;;;30.93;22.43;;;5.60;99.90;;;;;;5047401;28;20213;-76
2022/03/16 03:25:33;;;;;;;33.03;22.70;;;5.50;99.90;;;;;;5048239;28;20213;-75
2022/03/16 03:27:59;;;;;;;33.40;22.97;;;5.50;99.90;;;;;;5038529;28;20202;-76
2022/03/16 03:30:26;;;;;;;34.03;22.83;;;5.50;99.90;;;;;;5027754;28;20229;-76
2022/03/16 03:32:56;;;;;;;32.27;21.43;;;5.50;99.90;;;;;;5029076;28;20210;-76
2022/03/16 03:35:23;;;;;;;32.60;21.70;;;5.50;99.90;;;;;;5029422;28;20206;-76
2022/03/16 03:37:51;;;;;;;30.60;21.90;;;5.60;99.90;;;;;;5028126;28;20199;-75
2022/03/16 03:40:18;;;;;;;35.10;23.03;;;5.50;99.90;;;;;;5027747;28;20326;-75
2022/03/16 03:42:44;;;;;;;35.20;23.83;;;5.50;99.90;;;;;;5027702;28;20203;-75
2022/03/16 03:45:11;;;;;;;36.03;23.23;;;5.60;99.90;;;;;;5028494;28;20209;-76
2022/03/16 03:47:38;;;;;;;33.97;23.40;;;5.60;99.90;;;;;;5040135;28;20213;-75
2022/03/16 03:50:07;;;;;;;34.67;23.33;;;5.70;99.90;;;;;;5047604;28;20920;-76
2022/03/16 03:52:34;;;;;;;37.03;23.37;;;5.70;99.90;;;;;;5034418;28;20214;-77
2022/03/16 03:55:01;;;;;;;34.40;23.07;;;5.70;99.90;;;;;;5027742;28;20210;-76
2022/03/16 03:57:28;;;;;;;38.63;24.90;;;5.70;99.90;;;;;;5027165;28;20226;-76
2022/03/16 03:59:54;;;;;;;38.70;25.47;;;5.70;99.90;;;;;;5028098;28;20547;-78
2022/03/16 04:02:21;;;;;;;39.20;26.70;;;5.80;99.90;;;;;;5027347;28;20229;-76
2022/03/16 04:04:48;;;;;;;37.73;28.43;;;5.80;99.90;;;;;;5027812;28;20198;-75
2022/03/16 04:07:16;;;;;;;41.50;28.57;;;5.80;99.90;;;;;;5028136;28;20209;-76
2022/03/16 04:09:42;;;;;;;39.70;27.70;;;5.90;99.90;;;;;;5027127;28;20227;-76
2022/03/16 04:12:10;;;;;;;41.50;28.60;;;5.80;99.90;;;;;;5026825;28;20307;-76
2022/03/16 04:14:37;;;;;;;42.63;28.97;;;5.90;99.90;;;;;;5027192;28;20210;-75
2022/03/16 04:17:04;;;;;;;44.47;29.17;;;5.80;99.90;;;;;;5027689;28;20209;-76
2022/03/16 04:19:30;;;;;;;42.00;30.37;;;5.80;99.90;;;;;;5026238;28;20214;-76
2022/03/16 04:21:57;;;;;;;43.50;30.53;;;5.80;99.90;;;;;;5027216;28;20209;-76
2022/03/16 04:24:25;;;;;;;48.60;31.03;;;5.90;99.90;;;;;;5027308;28;20207;-76
2022/03/16 04:26:52;;;;;;;44.93;30.23;;;5.80;99.90;;;;;;5026303;28;20202;-76
2022/03/16 04:29:19;;;;;;;46.27;32.03;;;5.80;99.90;;;;;;5026770;28;20210;-76
2022/03/16 04:31:45;;;;;;;47.50;32.87;;;5.90;99.90;;;;;;5026816;28;20205;-76
2022/03/16 04:34:12;;;;;;;45.53;29.27;;;5.90;99.90;;;;;;5027231;28;20200;-74
2022/03/16 04:36:39;;;;;;;47.20;32.50;;;5.80;99.90;;;;;;5027245;28;20209;-76
2022/03/16 04:39:06;;;;;;;47.73;32.60;;;5.90;99.90;;;;;;5027254;28;20202;-75
2022/03/16 04:41:34;;;;;;;45.13;31.23;;;5.90;99.90;;;;;;5026251;28;20198;-76
2022/03/16 04:44:01;;;;;;;44.87;30.83;;;6.00;99.90;;;;;;5027357;28;20229;-76
2022/03/16 04:46:27;;;;;;;49.00;32.80;;;6.00;99.90;;;;;;5026759;28;20207;-76
2022/03/16 04:48:54;;;;;;;51.87;32.87;;;5.90;99.90;;;;;;5026495;28;20214;-76
2022/03/16 04:51:21;;;;;;;48.30;31.43;;;5.90;99.90;;;;;;5033738;28;20229;-76
2022/03/16 04:53:47;;;;;;;53.50;32.77;;;5.90;99.90;;;;;;5045973;28;20201;-76
2022/03/16 04:56:14;;;;;;;46.63;30.30;;;5.90;99.90;;;;;;5045787;28;20213;-77
2022/03/16 04:58:42;;;;;;;44.00;29.43;;;5.90;99.90;;;;;;5046535;28;20859;-76
2022/03/16 05:01:09;;;;;;;46.03;31.63;;;5.90;99.90;;;;;;5028652;28;20207;-76
2022/03/16 05:03:36;;;;;;;45.00;31.00;;;5.90;99.90;;;;;;5026535;28;20214;-76
2022/03/16 05:06:03;;;;;;;47.57;31.83;;;5.90;99.90;;;;;;5026664;28;20194;-76
2022/03/16 05:08:29;;;;;;;44.60;31.90;;;6.00;99.90;;;;;;5025808;28;20252;-76
2022/03/16 05:10:56;;;;;;;42.10;29.33;;;6.00;99.90;;;;;;5026139;28;20740;-75
2022/03/16 05:13:23;;;;;;;47.03;31.83;;;5.90;99.90;;;;;;5025872;28;20206;-76
2022/03/16 05:15:51;;;;;;;48.80;29.73;;;5.90;99.90;;;;;;5026228;28;20210;-76
2022/03/16 05:18:18;;;;;;;40.90;28.27;;;5.90;99.90;;;;;;5025833;28;20210;-76
2022/03/16 05:20:45;;;;;;;47.80;31.83;;;5.90;99.90;;;;;;5026876;28;20213;-76
2022/03/16 05:23:11;;;;;;;46.17;29.37;;;6.00;99.90;;;;;;5026008;28;20206;-74
2022/03/16 05:25:38;;;;;;;45.50;29.93;;;6.00;99.90;;;;;;5026147;28;20199;-75
2022/03/16 05:28:05;;;;;;;42.73;29.80;;;6.00;99.90;;;;;;5033731;28;20213;-76
2022/03/16 05:30:32;;;;;;;42.50;29.13;;;5.90;99.90;;;;;;5045072;28;20221;-76
2022/03/16 05:33:01;;;;;;;43.57;30.00;;;5.90;99.90;;;;;;5044212;28;20864;-75
2022/03/16 05:35:29;;;;;;;41.73;28.90;;;5.90;99.90;;;;;;5044347;28;20230;-76
2022/03/16 05:37:56;;;;;;;43.30;29.67;;;5.90;99.90;;;;;;5044948;28;20205;-74
2022/03/16 05:40:23;;;;;;;44.63;28.30;;;5.90;99.90;;;;;;5045266;28;20206;-75
2022/03/16 05:42:49;;;;;;;42.50;29.50;;;5.90;99.90;;;;;;5045568;28;20507;-76
2022/03/16 05:45:16;;;;;;;44.77;29.03;;;5.90;99.90;;;;;;5044459;28;20614;-76
2022/03/16 05:47:43;;;;;;;43.20;29.03;;;5.90;99.90;;;;;;5045217;28;20221;-76
2022/03/16 05:50:11;;;;;;;40.30;27.87;;;5.90;99.90;;;;;;5043935;28;20524;-76
2022/03/16 05:52:40;;;;;;;40.93;27.87;;;5.90;99.90;;;;;;5025405;28;20198;-76
2022/03/16 05:55:09;;;;;;;40.07;28.20;;;5.90;99.90;;;;;;5031567;28;20236;-77
2022/03/16 05:57:37;;;;;;;39.97;28.10;;;5.90;99.90;;;;;;5043920;28;20237;-75
2022/03/16 06:00:05;;;;;;;39.50;26.83;;;5.90;99.90;;;;;;5045469;28;20210;-76
2022/03/16 06:02:32;;;;;;;38.20;26.50;;;5.90;99.90;;;;;;5039928;28;20529;-75
2022/03/16 06:04:59;;;;;;;40.97;26.20;;;6.00;99.90;;;;;;5025814;28;20207;-75
2022/03/16 06:07:27;;;;;;;36.73;25.20;;;6.00;99.90;;;;;;5025514;28;20202;-76
2022/03/16 06:09:54;;;;;;;36.00;24.70;;;6.00;99.90;;;;;;5025349;28;20207;-76
2022/03/16 06:12:20;;;;;;;39.73;25.50;;;6.00;99.90;;;;;;5040294;28;20815;-76
2022/03/16 06:14:47;;;;;;;35.03;23.67;;;6.00;99.90;;;;;;5045314;28;20206;-76
2022/03/16 06:17:14;;;;;;;33.07;23.13;;;6.00;99.90;;;;;;5025937;28;20206;-76
2022/03/16 06:19:40;;;;;;;33.93;24.00;;;6.00;99.90;;;;;;5035869;28;20898;-76
2022/03/16 06:22:07;;;;;;;33.10;22.37;;;6.00;99.90;;;;;;5044868;28;20202;-77
2022/03/16 06:24:35;;;;;;;32.43;22.80;;;6.00;99.90;;;;;;5044716;28;20229;-76
2022/03/16 06:27:02;;;;;;;31.87;22.10;;;6.00;99.90;;;;;;5035725;28;20210;-76
2022/03/16 06:29:29;;;;;;;31.17;21.43;;;6.10;99.90;;;;;;5024683;28;20502;-77
2022/03/16 06:31:56;;;;;;;29.70;20.47;;;6.10;99.90;;;;;;5025172;28;20278;-77
2022/03/16 06:34:22;;;;;;;29.23;21.63;;;6.10;99.90;;;;;;5024937;28;20681;-77
2022/03/16 06:36:49;;;;;;;26.00;18.90;;;6.20;99.90;;;;;;5025465;28;20214;-76
2022/03/16 06:39:16;;;;;;;30.30;20.67;;;6.20;99.90;;;;;;5024570;28;20210;-76
2022/03/16 06:41:44;;;;;;;31.43;20.17;;;6.20;99.90;;;;;;5025437;28;20203;-76
2022/03/16 06:44:11;;;;;;;26.07;20.97;;;6.30;99.90;;;;;;5024754;28;20238;-76
2022/03/16 06:46:38;;;;;;;27.93;19.23;;;6.30;99.90;;;;;;5025188;28;20282;-77
2022/03/16 06:49:05;;;;;;;30.27;19.67;;;6.40;99.90;;;;;;5026085;28;20215;-75
2022/03/16 06:51:31;;;;;;;25.90;19.07;;;6.40;99.90;;;;;;5024617;28;20223;-76
2022/03/16 06:53:58;;;;;;;24.60;18.13;;;6.40;99.90;;;;;;5024283;28;20210;-75
2022/03/16 06:56:25;;;;;;;26.77;18.77;;;6.40;99.90;;;;;;5027609;28;20197;-74
2022/03/16 06:58:53;;;;;;;28.77;19.93;;;6.50;99.90;;;;;;5044715;28;20201;-75
2022/03/16 07:01:20;;;;;;;26.30;18.47;;;6.60;99.90;;;;;;5040515;28;20207;-75
2022/03/16 07:03:46;;;;;;;28.30;19.43;;;6.60;99.90;;;;;;5024809;28;20202;-77
2022/03/16 07:06:13;;;;;;;27.53;18.17;;;6.70;99.90;;;;;;5024118;28;20726;-77
2022/03/16 07:08:40;;;;;;;26.97;17.67;;;6.70;99.90;;;;;;5025185;28;20202;-76
2022/03/16 07:11:07;;;;;;;24.57;17.17;;;6.70;99.90;;;;;;5024340;28;20241;-76
2022/03/16 07:13:34;;;;;;;28.27;17.77;;;6.80;99.90;;;;;;5024661;28;20566;-77
2022/03/16 07:16:02;;;;;;;31.77;17.80;;;6.80;99.90;;;;;;5040351;28;20197;-77
2022/03/16 07:18:29;;;;;;;24.07;17.03;;;6.90;99.90;;;;;;5044333;28;20209;-76
2022/03/16 07:20:56;;;;;;;23.03;16.60;;;7.00;99.90;;;;;;5029361;28;20615;-75
2022/03/16 07:23:22;;;;;;;20.60;16.00;;;7.00;99.90;;;;;;5028249;28;20586;-75
2022/03/16 07:25:50;;;;;;;23.57;16.70;;;7.10;99.90;;;;;;5044427;28;20212;-76
2022/03/16 07:28:19;;;;;;;25.03;17.47;;;7.10;99.90;;;;;;5044068;28;20259;-77
2022/03/16 07:30:47;;;;;;;23.87;18.83;;;7.20;99.90;;;;;;5033892;28;20229;-76
2022/03/16 07:33:16;;;;;;;25.80;17.03;;;7.30;99.90;;;;;;5028837;28;20276;-75
2022/03/16 07:35:43;;;;;;;25.80;17.90;;;7.40;99.90;;;;;;5026944;28;20208;-75
2022/03/16 07:38:10;;;;;;;23.67;18.10;;;7.50;99.90;;;;;;5025455;28;20227;-76
2022/03/16 07:40:37;;;;;;;24.23;17.73;;;7.60;99.90;;;;;;5024321;28;20225;-76
2022/03/16 07:43:05;;;;;;;26.60;18.20;;;7.60;99.90;;;;;;5024500;28;20211;-77
2022/03/16 07:45:32;;;;;;;22.30;16.77;;;7.70;99.90;;;;;;5024831;28;20326;-76
2022/03/16 07:47:59;;;;;;;25.00;17.73;;;7.80;99.90;;;;;;5036808;28;20209;-76
2022/03/16 07:50:28;;;;;;;24.97;18.83;;;7.80;99.90;;;;;;5039107;28;20198;-77
2022/03/16 07:52:55;;;;;;;26.13;17.97;;;7.90;99.90;;;;;;5024195;28;20205;-76
2022/03/16 07:55:22;;;;;;;25.53;17.87;;;8.00;99.90;;;;;;5025868;28;20214;-77
2022/03/16 07:57:49;;;;;;;24.37;16.87;;;8.10;99.90;;;;;;5027205;28;20223;-78
2022/03/16 08:00:17;;;;;;;23.40;17.00;;;8.20;99.90;;;;;;5026907;28;20206;-77
2022/03/16 08:02:44;;;;;;;23.03;17.93;;;8.30;99.90;;;;;;5027486;28;20195;-77
2022/03/16 08:05:12;;;;;;;28.07;17.77;;;8.40;99.90;;;;;;5027641;28;20203;-76
2022/03/16 08:14:42;;;;;;;19.90;14.60;;;8.70;99.90;;;;;;4942285;28;20333;-76
2022/03/16 08:17:09;;;;;;;20.07;15.93;;;8.90;99.90;;;;;;5028313;28;20206;-76
2022/03/16 08:19:35;;;;;;;19.40;14.70;;;8.90;99.90;;;;;;5027712;28;20209;-77
2022/03/16 08:22:02;;;;;;;18.27;13.70;;;9.00;99.90;;;;;;5028312;28;20202;-77
2022/03/16 08:24:29;;;;;;;18.00;13.00;;;9.10;99.90;;;;;;5027342;28;20607;-77
2022/03/16 08:26:55;;;;;;;18.70;14.17;;;9.10;99.90;;;;;;5027474;28;20195;-76
2022/03/16 08:29:25;;;;;;;16.43;13.33;;;9.20;99.90;;;;;;5027028;28;20217;-78
2022/03/16 08:31:54;;;;;;;19.67;13.27;;;9.30;99.90;;;;;;5026926;28;20233;-77
2022/03/16 08:34:21;;;;;;;21.30;13.27;;;9.30;99.90;;;;;;5026190;28;20280;-77
2022/03/16 08:36:48;;;;;;;20.37;14.13;;;9.40;99.90;;;;;;5039080;28;20221;-79
2022/03/16 08:39:14;;;;;;;19.57;13.27;;;9.40;99.90;;;;;;5046519;28;20209;-76
2022/03/16 08:41:41;;;;;;;17.03;11.73;;;9.50;99.90;;;;;;5046574;28;20209;-76
2022/03/16 08:44:08;;;;;;;16.53;12.50;;;9.50;99.90;;;;;;5045219;28;20217;-76
2022/03/16 08:46:35;;;;;;;18.37;13.00;;;9.60;99.90;;;;;;5045969;28;20225;-76
2022/03/16 08:49:04;;;;;;;18.73;13.73;;;9.70;99.90;;;;;;5030035;28;20339;-77
2022/03/16 08:51:30;;;;;;;16.07;12.33;;;9.80;99.90;;;;;;5026448;28;20604;-75
2022/03/16 08:53:57;;;;;;;17.20;12.57;;;9.80;99.90;;;;;;5026618;28;20198;-76
2022/03/16 08:56:24;;;;;;;17.00;12.93;;;9.90;99.90;;;;;;5041548;28;20205;-77
2022/03/16 08:58:51;;;;;;;15.40;10.87;;;10.00;99.90;;;;;;5042920;28;20214;-75
2022/03/16 09:01:18;;;;;;;18.70;13.30;;;10.10;99.90;;;;;;5026042;28;20218;-75
2022/03/16 09:03:44;;;;;;;16.23;13.03;;;10.20;99.90;;;;;;5026328;28;20210;-77
2022/03/16 09:06:13;;;;;;;18.57;12.73;;;10.20;99.90;;;;;;5026401;28;20199;-75
2022/03/16 09:08:42;;;;;;;17.90;13.53;;;10.30;99.90;;;;;;5027260;28;20206;-75
2022/03/16 09:11:09;;;;;;;18.63;12.87;;;10.30;99.90;;;;;;5026367;28;20356;-75
2022/03/16 09:13:35;;;;;;;17.60;12.07;;;10.40;99.90;;;;;;5025755;28;20206;-75
2022/03/16 09:16:02;;;;;;;18.40;13.20;;;10.40;99.90;;;;;;5039249;28;20198;-75
2022/03/16 09:18:29;;;;;;;16.90;12.67;;;10.60;99.90;;;;;;5046147;28;20206;-76
2022/03/16 09:20:56;;;;;;;17.10;12.87;;;10.70;99.90;;;;;;5045252;28;20217;-76
2022/03/16 09:23:30;;;;;;;17.13;12.37;;;10.80;99.90;;;;;;5045397;28;20206;-76
2022/03/16 09:25:56;;;;;;;19.20;13.07;;;10.90;99.90;;;;;;5045720;28;20205;-76
2022/03/16 09:28:23;;;;;;;16.13;11.30;;;11.10;99.90;;;;;;5045219;28;20208;-76
2022/03/16 09:30:50;;;;;;;22.33;12.80;;;11.20;99.90;;;;;;5044716;28;20221;-77
2022/03/16 09:33:17;;;;;;;21.50;13.10;;;11.20;99.90;;;;;;5025753;28;20935;-76
2022/03/16 09:35:44;;;;;;;19.63;13.13;;;11.30;99.90;;;;;;5025420;28;20202;-77
2022/03/16 09:38:12;;;;;;;16.03;12.07;;;11.40;99.90;;;;;;5025692;28;20209;-77
2022/03/16 09:40:41;;;;;;;19.43;12.37;;;11.50;99.90;;;;;;5025909;28;20240;-76
2022/03/16 09:43:09;;;;;;;16.73;11.80;;;11.60;99.90;;;;;;5025305;28;20289;-76
2022/03/16 09:45:46;;;;;;;19.07;12.80;;;11.80;99.90;;;;;;5032743;28;20220;-76
2022/03/16 09:48:14;;;;;;;16.77;12.17;;;11.90;99.90;;;;;;5043863;28;20201;-76
2022/03/16 09:50:41;;;;;;;17.83;12.33;;;12.10;99.90;;;;;;5025007;28;20203;-76
2022/03/16 09:53:11;;;;;;;14.93;11.13;;;12.30;99.90;;;;;;5025263;28;20254;-75
2022/03/16 09:55:39;;;;;;;17.10;11.37;;;12.40;99.90;;;;;;5025301;28;21040;-75
2022/03/16 09:58:07;;;;;;;16.37;10.40;;;12.50;99.90;;;;;;5025188;28;20657;-75
2022/03/16 10:00:34;;;;;;;13.37;10.20;;;12.70;99.90;;;;;;5025009;28;20213;-77
2022/03/16 10:03:02;;;;;;;16.03;9.77;;;12.90;99.90;;;;;;5024206;28;20206;-76
2022/03/16 10:05:30;;;;;;;14.77;9.30;;;12.90;99.90;;;;;;5023908;28;20715;-77
2022/03/16 10:07:59;;;;;;;11.80;8.43;;;13.10;99.90;;;;;;5025628;28;20205;-77
2022/03/16 10:13:16;;;;;;;18.60;10.40;;;13.50;99.90;;;;;;5029818;28;20248;-76
2022/03/16 10:15:43;;;;;;;10.87;8.73;;;13.50;99.90;;;;;;5045051;28;20198;-77
2022/03/16 10:18:10;;;;;;;16.90;9.10;;;13.60;99.90;;;;;;5044005;28;20429;-75
2022/03/16 10:20:39;;;;;;;10.77;8.67;;;13.70;99.90;;;;;;5031190;28;20293;-78
2022/03/16 10:23:08;;;;;;;11.03;8.67;;;13.70;99.90;;;;;;5025128;28;20195;-75
2022/03/16 10:25:36;;;;;;;10.90;8.87;;;13.80;99.90;;;;;;5024185;28;20209;-77
2022/03/16 10:28:11;;;;;;;10.97;8.80;;;14.00;99.90;;;;;;5043335;28;20210;-77
2022/03/16 10:30:52;;;;;;;12.80;8.07;;;14.00;99.90;;;;;;5044937;28;20254;-75
2022/03/16 10:33:20;;;;;;;9.83;7.90;;;14.00;99.90;;;;;;5024944;28;20827;-76
2022/03/16 10:35:58;;;;;;;13.53;7.37;;;14.10;99.90;;;;;;5026390;28;21010;-76
2022/03/16 10:38:26;;;;;;;11.77;7.33;;;14.30;99.90;;;;;;5025115;28;20291;-76
2022/03/16 10:40:54;;;;;;;11.53;6.63;;;14.50;99.90;;;;;;5025909;28;20214;-76
2022/03/16 10:49:03;;;;;;;7.80;6.37;;;14.50;99.90;;;;;;5030862;28;20643;-75
2022/03/16 10:51:30;;;;;;;9.10;6.40;;;14.70;99.90;;;;;;5022548;28;20199;-76
2022/03/16 10:53:58;;;;;;;8.93;6.17;;;14.90;99.90;;;;;;5026829;28;20625;-76
2022/03/16 10:56:27;;;;;;;9.73;6.53;;;15.10;99.90;;;;;;5024344;28;20214;-76
2022/03/16 10:58:55;;;;;;;6.40;5.50;;;15.30;99.90;;;;;;5041607;28;20198;-76
2022/03/16 11:01:25;;;;;;;8.80;6.40;;;15.30;99.90;;;;;;5042798;28;20206;-76
2022/03/16 11:03:53;;;;;;;7.77;5.97;;;15.50;99.90;;;;;;5043643;28;20229;-76
2022/03/16 11:06:22;;;;;;;7.77;6.00;;;15.60;99.90;;;;;;5043880;28;20665;-75
2022/03/16 11:08:50;;;;;;;9.47;6.43;;;15.60;99.90;;;;;;5037522;28;20206;-77
2022/03/16 11:14:08;;;;;;;8.33;6.83;;;15.30;99.90;;;;;;4988258;28;20556;-77
2022/03/16 11:16:36;;;;;;;8.30;6.90;;;15.10;99.90;;;;;;5024547;28;20190;-76
2022/03/16 11:19:05;;;;;;;9.90;6.47;;;15.00;99.90;;;;;;5024247;28;20209;-78
2022/03/16 11:21:45;;;;;;;8.47;7.10;;;15.10;99.90;;;;;;5023912;28;20204;-76
2022/03/16 11:24:18;;;;;;;11.37;7.63;;;15.20;99.90;;;;;;5031843;28;20206;-77
2022/03/16 11:27:23;;;;;;;8.67;6.77;;;15.20;99.90;;;;;;5043786;28;20194;-78
2022/03/16 11:30:01;;;;;;;8.47;6.33;;;15.20;99.90;;;;;;5035009;28;20531;-76
2022/03/16 11:32:36;;;;;;;11.40;6.57;;;15.10;99.90;;;;;;5030424;28;20688;-76
2022/03/16 11:35:07;;;;;;;8.67;6.80;;;15.30;99.90;;;;;;5028464;28;20225;-77
2022/03/16 11:37:35;;;;;;;7.00;6.30;;;15.40;99.90;;;;;;5028073;28;20194;-76
2022/03/16 11:40:11;;;;;;;7.10;6.23;;;15.50;99.90;;;;;;5027287;28;20194;-77
2022/03/16 11:42:39;;;;;;;10.90;7.40;;;15.50;99.90;;;;;;5027077;28;20194;-75
2022/03/16 11:45:31;;;;;;;8.17;6.50;;;15.40;99.90;;;;;;5028057;28;20640;-77
2022/03/16 11:48:00;;;;;;;9.47;6.93;;;15.30;99.90;;;;;;5027334;28;20603;-77
2022/03/16 11:50:28;;;;;;;7.67;6.80;;;15.10;99.90;;;;;;5027739;28;20206;-77
2022/03/16 11:53:05;;;;;;;7.67;6.67;;;15.20;99.90;;;;;;5027638;28;20526;-77
2022/03/16 11:55:41;;;;;;;9.00;6.60;;;15.10;99.90;;;;;;5027896;28;20313;-77
2022/03/16 11:58:29;;;;;;;7.90;7.10;;;15.00;99.90;;;;;;5028044;28;20234;-76
2022/03/16 12:01:26;;;;;;;7.77;6.17;;;15.00;99.90;;;;;;5027584;28;20676;-77
2022/03/16 12:03:58;;;;;;;8.13;7.33;;;15.10;99.90;;;;;;5027612;28;20232;-76
2022/03/16 12:06:30;;;;;;;7.40;6.53;;;15.20;99.90;;;;;;5028003;28;20199;-76
2022/03/16 12:09:02;;;;;;;8.13;6.73;;;15.40;99.90;;;;;;5027532;28;20235;-75
2022/03/16 12:14:57;;;;;;;8.33;7.10;;;15.60;99.90;;;;;;5027350;28;20234;-75
2022/03/16 12:17:24;;;;;;;8.30;7.45;;;15.60;99.90;;;;;;5026295;28;20641;-76
2022/03/16 12:20:09;;;;;;;6.90;6.30;;;15.60;99.90;;;;;;5027069;28;20214;-75
2022/03/16 12:22:38;;;;;;;8.90;7.50;;;15.50;99.90;;;;;;5026781;28;20206;-76
2022/03/16 12:25:28;;;;;;;8.75;7.75;;;15.50;99.90;;;;;;5026725;28;20264;-76
2022/03/16 12:30:41;;;;;;;10.40;7.43;;;15.50;99.90;;;;;;5026567;28;20772;-76
2022/03/16 12:33:11;;;;;;;8.68;7.18;;;15.60;99.90;;;;;;5026979;28;20226;-76
2022/03/16 12:35:39;;;;;;;9.38;6.82;;;15.70;99.90;;;;;;5026725;28;20206;-76
2022/03/16 12:38:09;;;;;;;8.60;7.80;;;15.60;99.90;;;;;;5026454;28;20201;-77
2022/03/16 12:42:30;;;;;;;8.50;7.47;;;15.60;99.90;;;;;;5026600;28;20233;-77
2022/03/16 12:43:26;;;;;;;10.67;7.93;;;15.60;99.90;;;;;;5026439;28;20198;-76
2022/03/16 12:45:58;;;;;;;8.93;7.70;;;15.60;99.90;;;;;;5025293;28;20207;-76
2022/03/16 12:48:33;;;;;;;10.55;7.78;;;15.60;99.90;;;;;;5036553;28;20198;-77
2022/03/16 12:51:02;;;;;;;8.20;7.35;;;15.60;99.90;;;;;;5027003;28;20307;-76
2022/03/16 12:53:37;;;;;;;8.70;7.50;;;15.30;99.90;;;;;;5025347;28;20307;-77
2022/03/16 12:56:04;;;;;;;12.40;7.67;;;15.40;99.90;;;;;;5025995;28;20606;-77
2022/03/16 12:58:32;;;;;;;9.30;7.87;;;15.30;99.90;;;;;;5025586;28;20218;-77
2022/03/16 13:00:59;;;;;;;10.40;8.50;;;15.30;99.90;;;;;;5026807;28;20964;-76
2022/03/16 13:03:26;;;;;;;10.97;8.17;;;15.40;99.90;;;;;;5026192;28;20209;-76
2022/03/16 13:05:53;;;;;;;10.53;9.03;;;15.30;99.90;;;;;;5026548;28;20318;-75
2022/03/16 13:08:23;;;;;;;10.27;8.50;;;15.20;99.90;;;;;;5026198;28;20220;-76